Terminal Aerodrome Forecast
Issued by NWS Jackson, KY

Home | Current Version | Previous Version | Graphics & Text | Print | Product List | Glossary On
Versions: 1 2 3 4 5 6 7 8 9 10 11 12 13 14 15 16 17 18 19 20 21 22 23 24 25 26 27 28 29
263
FTUS43 KJKL 301743
TAFJKL
TAF
KJKL 301743Z 3018/0118 28003KT P6SM BKN015
     FM301930 31003KT P6SM SCT020 BKN040
     FM010900 VRB03KT 4SM BR BKN040
     FM011300 VRB05KT P6SM SCT030 BKN060=

USA.gov is the U.S. government's official web portal to all federal, state and local government web resources and services.